Aérodrome :
LOGIN :

S'inscrire | Disclaimer

   EN    FR    IT 

 










Légende :    VFR   VFR Marginal   IFR   IFR Intensif   IFR Très Intensif
Visi : 
Plafond : 
>= 8 km
>= 3000ft
5 à 8 km
1000 à 3000 ft
1500m à 5 km
500 à 1000 ft
800 à 1500m
200 à 500 ft
< 800m
< 200 ft
Symboles :   Orages  Brouillard  Fortes neiges  Fortes précipitations  Vent > 20 kt
SIGMETs :   Divers  Orages  Givrage  Turbulence  Onde Orograph.  Cendres Volcan.






- Altitude de l'aérodrome : 464 ft
- Code IATA : EVX


LFOE - Evreux

DERNIER METAR :
  • 201030Z AUTO 09003KT 010V160 9999 ///TCU 16/04 Q1017 BECMG NSC

METARs EXPIRÉS :
  • 201000Z AUTO 05004KT 010V090 CAVOK 15/05 Q1017 NOSIG
  • 200930Z AUTO 05003KT 330V100 CAVOK 15/06 Q1017 NOSIG
  • 200900Z AUTO VRB03KT CAVOK 15/06 Q1017 NOSIG
  • 200830Z AUTO VRB02KT CAVOK 13/06 Q1017 NOSIG
  • 200800Z AUTO VRB02KT CAVOK 11/05 Q1017 NOSIG

TAF TAF LFOE
Valide du 20 à 09h jusqu'au 21 à 09h UTC


200800Z 2009/2109 VRB02KT CAVOK
BECMG 2010/2012 05006KT
PROB30
TEMPO 2013/2017 4000 -SHRA SCT050TCU
BECMG 2019/2021 VRB02KT
BECMG 2102/2104 4000 BR
TEMPO 2104/2106 2000 BR
BECMG 2106/2107 CAVOK



MET'MAP, la Météo Aéronautique d'un coup d'oeil ! - Copyright ORBIFLY Décembre 2007 - Disclaimer

ORBIFLY MET'MAP TEAM :

Programmation & Développement : Alexandra Zaïnal
Sur une idée originale de : Baudouin d'Aumeries
Assistance à la programmation : Marc-Olivier Méhu
Soutien technique & logistique : Manuel Goepfert

Contact : metmap@orbifly.com




SOURCES & CREDITS :

   NOAA